<?xml version="1.0" encoding="UTF-8" standalone="no" ?>
<gpx xmlns="http://www.topografix.com/GPX/1/1" xmlns:xsi="http://www.w3.org/2001/XMLSchema-instance" xsi:schemaLocation="http://www.topografix.com/GPX/1/1 http://www.topografix.com/GPX/1/1/gpx.xsd" version="1.1" creator="VisuGPX - https://www.visugpx.com">
  <metadata>
    <name>PR76 - Sur les hauteurs du Village</name>
    <desc><![CDATA[Randonnée de proximité au départ des Angles ]]></desc>
  </metadata>
  <trk>
    <name><![CDATA[13504088-LES ANGLES PR76 ]]></name>
    <trkseg>
      <trkpt lat="42.5793" lon="2.07449">
        <ele>1668</ele>
        <time>2021-08-05T13:10:43Z</time>
      </trkpt>
      <trkpt lat="42.5805" lon="2.07466">
        <ele>1666</ele>
        <time>2021-08-05T13:13:24Z</time>
      </trkpt>
      <trkpt lat="42.5814" lon="2.07509">
        <ele>1664</ele>
        <time>2021-08-05T13:15:31Z</time>
      </trkpt>
      <trkpt lat="42.58252" lon="2.07645">
        <ele>1660</ele>
        <time>2021-08-05T13:18:52Z</time>
      </trkpt>
      <trkpt lat="42.58348" lon="2.07751">
        <ele>1658</ele>
        <time>2021-08-05T13:21:37Z</time>
      </trkpt>
      <trkpt lat="42.5846" lon="2.07839">
        <ele>1664</ele>
        <time>2021-08-05T13:24:30Z</time>
      </trkpt>
      <trkpt lat="42.58582" lon="2.07941">
        <ele>1663</ele>
        <time>2021-08-05T13:27:41Z</time>
      </trkpt>
      <trkpt lat="42.58741" lon="2.0806">
        <ele>1663</ele>
        <time>2021-08-05T13:31:43Z</time>
      </trkpt>
      <trkpt lat="42.58808" lon="2.08088">
        <ele>1672</ele>
        <time>2021-08-05T13:33:17Z</time>
      </trkpt>
      <trkpt lat="42.58834" lon="2.08152">
        <ele>1671</ele>
        <time>2021-08-05T13:34:28Z</time>
      </trkpt>
      <trkpt lat="42.58875" lon="2.08252">
        <ele>1675</ele>
        <time>2021-08-05T13:36:21Z</time>
      </trkpt>
      <trkpt lat="42.58923" lon="2.08379">
        <ele>1679</ele>
        <time>2021-08-05T13:38:41Z</time>
      </trkpt>
      <trkpt lat="42.58954" lon="2.0847">
        <ele>1677</ele>
        <time>2021-08-05T13:40:20Z</time>
      </trkpt>
      <trkpt lat="42.58978" lon="2.08534">
        <ele>1675</ele>
        <time>2021-08-05T13:41:30Z</time>
      </trkpt>
      <trkpt lat="42.59042" lon="2.08626">
        <ele>1676</ele>
        <time>2021-08-05T13:43:35Z</time>
      </trkpt>
      <trkpt lat="42.59099" lon="2.08693">
        <ele>1678</ele>
        <time>2021-08-05T13:45:15Z</time>
      </trkpt>
      <trkpt lat="42.59158" lon="2.08776">
        <ele>1677</ele>
        <time>2021-08-05T13:47:08Z</time>
      </trkpt>
      <trkpt lat="42.59227" lon="2.0885">
        <ele>1678</ele>
        <time>2021-08-05T13:49:06Z</time>
      </trkpt>
      <trkpt lat="42.59285" lon="2.08884">
        <ele>1683</ele>
        <time>2021-08-05T13:50:30Z</time>
      </trkpt>
      <trkpt lat="42.59376" lon="2.08916">
        <ele>1690</ele>
        <time>2021-08-05T13:52:36Z</time>
      </trkpt>
      <trkpt lat="42.59451" lon="2.08926">
        <ele>1694</ele>
        <time>2021-08-05T13:54:16Z</time>
      </trkpt>
      <trkpt lat="42.59559" lon="2.0892">
        <ele>1698</ele>
        <time>2021-08-05T13:56:40Z</time>
      </trkpt>
      <trkpt lat="42.59639" lon="2.08962">
        <ele>1696</ele>
        <time>2021-08-05T13:58:35Z</time>
      </trkpt>
      <trkpt lat="42.5974" lon="2.09004">
        <ele>1695</ele>
        <time>2021-08-05T14:00:56Z</time>
      </trkpt>
      <trkpt lat="42.59891" lon="2.09062">
        <ele>1692</ele>
        <time>2021-08-05T14:04:25Z</time>
      </trkpt>
      <trkpt lat="42.60013" lon="2.09101">
        <ele>1693</ele>
        <time>2021-08-05T14:07:12Z</time>
      </trkpt>
      <trkpt lat="42.60084" lon="2.09118">
        <ele>1692</ele>
        <time>2021-08-05T14:08:49Z</time>
      </trkpt>
      <trkpt lat="42.60091" lon="2.09088">
        <ele>1694</ele>
        <time>2021-08-05T14:09:20Z</time>
      </trkpt>
      <trkpt lat="42.60054" lon="2.09034">
        <ele>1695</ele>
        <time>2021-08-05T14:10:32Z</time>
      </trkpt>
      <trkpt lat="42.60017" lon="2.08966">
        <ele>1698</ele>
        <time>2021-08-05T14:11:55Z</time>
      </trkpt>
      <trkpt lat="42.59984" lon="2.08856">
        <ele>1694</ele>
        <time>2021-08-05T14:13:52Z</time>
      </trkpt>
      <trkpt lat="42.59937" lon="2.0878">
        <ele>1695</ele>
        <time>2021-08-05T14:15:29Z</time>
      </trkpt>
      <trkpt lat="42.59904" lon="2.08706">
        <ele>1692</ele>
        <time>2021-08-05T14:16:54Z</time>
      </trkpt>
      <trkpt lat="42.59872" lon="2.08625">
        <ele>1689</ele>
        <time>2021-08-05T14:18:25Z</time>
      </trkpt>
      <trkpt lat="42.5984" lon="2.08553">
        <ele>1687</ele>
        <time>2021-08-05T14:19:47Z</time>
      </trkpt>
      <trkpt lat="42.59758" lon="2.08412">
        <ele>1687</ele>
        <time>2021-08-05T14:22:44Z</time>
      </trkpt>
      <trkpt lat="42.5973" lon="2.08201">
        <ele>1682</ele>
        <time>2021-08-05T14:26:14Z</time>
      </trkpt>
      <trkpt lat="42.59785" lon="2.0817">
        <ele>1676</ele>
        <time>2021-08-05T14:27:34Z</time>
      </trkpt>
      <trkpt lat="42.59818" lon="2.08139">
        <ele>1672</ele>
        <time>2021-08-05T14:28:27Z</time>
      </trkpt>
      <trkpt lat="42.59784" lon="2.0799">
        <ele>1670</ele>
        <time>2021-08-05T14:31:01Z</time>
      </trkpt>
      <trkpt lat="42.5976" lon="2.07828">
        <ele>1668</ele>
        <time>2021-08-05T14:33:43Z</time>
      </trkpt>
      <trkpt lat="42.59717" lon="2.07745">
        <ele>1669</ele>
        <time>2021-08-05T14:35:23Z</time>
      </trkpt>
      <trkpt lat="42.59707" lon="2.0768">
        <ele>1669</ele>
        <time>2021-08-05T14:36:28Z</time>
      </trkpt>
      <trkpt lat="42.59725" lon="2.07575">
        <ele>1667</ele>
        <time>2021-08-05T14:38:14Z</time>
      </trkpt>
      <trkpt lat="42.59683" lon="2.07517">
        <ele>1666</ele>
        <time>2021-08-05T14:39:34Z</time>
      </trkpt>
      <trkpt lat="42.5972" lon="2.07377">
        <ele>1664</ele>
        <time>2021-08-05T14:42:00Z</time>
      </trkpt>
      <trkpt lat="42.59547" lon="2.07355">
        <ele>1669</ele>
        <time>2021-08-05T14:45:52Z</time>
      </trkpt>
      <trkpt lat="42.59409" lon="2.07366">
        <ele>1681</ele>
        <time>2021-08-05T14:48:56Z</time>
      </trkpt>
      <trkpt lat="42.59308" lon="2.07251">
        <ele>1688</ele>
        <time>2021-08-05T14:51:52Z</time>
      </trkpt>
      <trkpt lat="42.592" lon="2.07103">
        <ele>1705</ele>
        <time>2021-08-05T14:55:17Z</time>
      </trkpt>
      <trkpt lat="42.59106" lon="2.07">
        <ele>1708</ele>
        <time>2021-08-05T14:57:58Z</time>
      </trkpt>
      <trkpt lat="42.5901" lon="2.06942">
        <ele>1717</ele>
        <time>2021-08-05T15:00:18Z</time>
      </trkpt>
      <trkpt lat="42.58917" lon="2.06861">
        <ele>1724</ele>
        <time>2021-08-05T15:02:45Z</time>
      </trkpt>
      <trkpt lat="42.58821" lon="2.06764">
        <ele>1733</ele>
        <time>2021-08-05T15:05:25Z</time>
      </trkpt>
      <trkpt lat="42.58749" lon="2.06703">
        <ele>1745</ele>
        <time>2021-08-05T15:07:18Z</time>
      </trkpt>
      <trkpt lat="42.58635" lon="2.06615">
        <ele>1762</ele>
        <time>2021-08-05T15:10:13Z</time>
      </trkpt>
      <trkpt lat="42.58684" lon="2.06739">
        <ele>1764</ele>
        <time>2021-08-05T15:12:32Z</time>
      </trkpt>
      <trkpt lat="42.58718" lon="2.0689">
        <ele>1767</ele>
        <time>2021-08-05T15:15:07Z</time>
      </trkpt>
      <trkpt lat="42.58738" lon="2.0705">
        <ele>1776</ele>
        <time>2021-08-05T15:17:46Z</time>
      </trkpt>
      <trkpt lat="42.58882" lon="2.07228">
        <ele>1771</ele>
        <time>2021-08-05T15:22:06Z</time>
      </trkpt>
      <trkpt lat="42.58946" lon="2.07384">
        <ele>1766</ele>
        <time>2021-08-05T15:25:01Z</time>
      </trkpt>
      <trkpt lat="42.59021" lon="2.07578">
        <ele>1772</ele>
        <time>2021-08-05T15:28:37Z</time>
      </trkpt>
      <trkpt lat="42.59068" lon="2.07713">
        <ele>1767</ele>
        <time>2021-08-05T15:31:03Z</time>
      </trkpt>
      <trkpt lat="42.59121" lon="2.07864">
        <ele>1765</ele>
        <time>2021-08-05T15:33:48Z</time>
      </trkpt>
      <trkpt lat="42.59145" lon="2.07991">
        <ele>1763</ele>
        <time>2021-08-05T15:35:57Z</time>
      </trkpt>
      <trkpt lat="42.59194" lon="2.081">
        <ele>1759</ele>
        <time>2021-08-05T15:38:02Z</time>
      </trkpt>
      <trkpt lat="42.59198" lon="2.08166">
        <ele>1757</ele>
        <time>2021-08-05T15:39:07Z</time>
      </trkpt>
      <trkpt lat="42.59251" lon="2.0823">
        <ele>1752</ele>
        <time>2021-08-05T15:40:42Z</time>
      </trkpt>
      <trkpt lat="42.59277" lon="2.0834">
        <ele>1750</ele>
        <time>2021-08-05T15:42:35Z</time>
      </trkpt>
      <trkpt lat="42.59284" lon="2.0848">
        <ele>1744</ele>
        <time>2021-08-05T15:44:53Z</time>
      </trkpt>
      <trkpt lat="42.59326" lon="2.08592">
        <ele>1739</ele>
        <time>2021-08-05T15:46:57Z</time>
      </trkpt>
      <trkpt lat="42.59339" lon="2.08687">
        <ele>1725</ele>
        <time>2021-08-05T15:48:32Z</time>
      </trkpt>
      <trkpt lat="42.59432" lon="2.08817">
        <ele>1710</ele>
        <time>2021-08-05T15:51:30Z</time>
      </trkpt>
      <trkpt lat="42.59466" lon="2.08919">
        <ele>1694</ele>
        <time>2021-08-05T15:53:20Z</time>
      </trkpt>
      <trkpt lat="42.59368" lon="2.08896">
        <ele>1692</ele>
        <time>2021-08-05T15:55:32Z</time>
      </trkpt>
      <trkpt lat="42.59314" lon="2.08868">
        <ele>1688</ele>
        <time>2021-08-05T15:56:49Z</time>
      </trkpt>
      <trkpt lat="42.59182" lon="2.088">
        <ele>1678</ele>
        <time>2021-08-05T15:59:58Z</time>
      </trkpt>
      <trkpt lat="42.59118" lon="2.08736">
        <ele>1677</ele>
        <time>2021-08-05T16:01:44Z</time>
      </trkpt>
      <trkpt lat="42.59002" lon="2.086">
        <ele>1673</ele>
        <time>2021-08-05T16:05:08Z</time>
      </trkpt>
      <trkpt lat="42.58911" lon="2.08355">
        <ele>1677</ele>
        <time>2021-08-05T16:09:38Z</time>
      </trkpt>
      <trkpt lat="42.58817" lon="2.08179">
        <ele>1664</ele>
        <time>2021-08-05T16:13:12Z</time>
      </trkpt>
      <trkpt lat="42.58731" lon="2.08049">
        <ele>1664</ele>
        <time>2021-08-05T16:16:03Z</time>
      </trkpt>
      <trkpt lat="42.58618" lon="2.0797">
        <ele>1662</ele>
        <time>2021-08-05T16:18:53Z</time>
      </trkpt>
      <trkpt lat="42.58505" lon="2.07882">
        <ele>1663</ele>
        <time>2021-08-05T16:21:47Z</time>
      </trkpt>
      <trkpt lat="42.58415" lon="2.07798">
        <ele>1663</ele>
        <time>2021-08-05T16:24:12Z</time>
      </trkpt>
      <trkpt lat="42.58415" lon="2.07798">
        <ele>1663</ele>
        <time>2021-08-05T16:24:13Z</time>
      </trkpt>
      <trkpt lat="42.58333" lon="2.07735">
        <ele>1658</ele>
        <time>2021-08-05T16:26:18Z</time>
      </trkpt>
      <trkpt lat="42.58217" lon="2.07593">
        <ele>1663</ele>
        <time>2021-08-05T16:29:47Z</time>
      </trkpt>
      <trkpt lat="42.58157" lon="2.07529">
        <ele>1663</ele>
        <time>2021-08-05T16:31:29Z</time>
      </trkpt>
      <trkpt lat="42.58067" lon="2.07471">
        <ele>1665</ele>
        <time>2021-08-05T16:33:41Z</time>
      </trkpt>
      <trkpt lat="42.57971" lon="2.07445">
        <ele>1669</ele>
        <time>2021-08-05T16:35:52Z</time>
      </trkpt>
    </trkseg>
  </trk>
</gpx>